Terminal Aerodrome Forecast
Issued by NWS

Home | Current Version | Previous Version | Text Only | Print | Product List | Glossary On
Versions: 1 2 3 4 5 6 7 8 9 10 11 12 13 14 15 16 17 18 19 20
000
FTUS43 KLSX 190822 AAA
TAFCPS
TAF AMD
KCPS 190822Z 1908/2006 VRB03KT 1SM BR BKN005
      TEMPO 1909/1913 1/2SM FG VV002
     FM191400 VRB04KT P6SM SCT030
     FM191800 23006KT P6SM SCT040
     FM200000 VRB04KT P6SM SKC=

USA.gov is the U.S. government's official web portal to all federal, state and local government web resources and services.